createdAt,value
2022-07-31T00:00:25.045Z,1014.23
2022-07-31T00:01:24.027Z,1014.19
2022-07-31T00:02:24.013Z,1014.17
2022-07-31T00:03:24.995Z,1014.19
2022-07-31T00:04:23.975Z,1014.16
2022-07-31T00:05:23.987Z,1014.12
2022-07-31T00:06:23.946Z,1014.15
2022-07-31T00:07:23.945Z,1014.15
2022-07-31T00:08:23.919Z,1014.13
2022-07-31T00:09:53.241Z,1014.21
2022-07-31T00:10:25.140Z,1014.17
2022-07-31T00:11:23.898Z,1014.18
2022-07-31T00:12:23.866Z,1014.13
2022-07-31T00:13:56.443Z,1014.18
2022-07-31T00:14:24.851Z,1014.13
2022-07-31T00:15:23.830Z,1014.10
2022-07-31T00:16:23.849Z,1014.10
2022-07-31T00:17:23.807Z,1014.07
2022-07-31T00:18:23.769Z,1014.06
2022-07-31T00:19:23.786Z,1014.08
2022-07-31T00:20:23.755Z,1014.08
2022-07-31T00:21:23.729Z,1014.09
2022-07-31T00:22:23.712Z,1014.06
2022-07-31T00:23:23.724Z,1014.05
2022-07-31T00:24:23.690Z,1014.06
2022-07-31T00:25:23.694Z,1014.06
2022-07-31T00:26:23.694Z,1014.11
2022-07-31T00:27:23.790Z,1014.15
2022-07-31T00:28:23.645Z,1014.15
2022-07-31T00:29:23.612Z,1014.13
2022-07-31T00:30:23.613Z,1014.11
2022-07-31T00:31:23.606Z,1014.11
2022-07-31T00:32:23.574Z,1014.09
2022-07-31T00:33:23.697Z,1014.10
2022-07-31T00:34:23.575Z,1014.09
2022-07-31T00:35:23.533Z,1014.03
2022-07-31T00:36:30.052Z,1013.99
2022-07-31T00:37:24.538Z,1013.97
2022-07-31T00:38:27.494Z,1013.98
2022-07-31T00:39:23.494Z,1013.96
2022-07-31T00:40:23.488Z,1013.95
2022-07-31T00:41:23.456Z,1013.96
2022-07-31T00:42:23.438Z,1013.92
2022-07-31T00:43:23.451Z,1013.90
2022-07-31T00:44:23.537Z,1013.95
2022-07-31T00:45:24.118Z,1013.92
2022-07-31T00:46:24.393Z,1013.96
2022-07-31T00:47:25.586Z,1013.95
2022-07-31T00:48:23.371Z,1013.98
2022-07-31T00:49:23.491Z,1013.99
2022-07-31T00:50:23.444Z,1014.01
2022-07-31T00:51:23.324Z,1013.97
2022-07-31T00:52:23.313Z,1014.02
2022-07-31T00:53:23.298Z,1014.04
2022-07-31T00:54:23.320Z,1014.07
2022-07-31T00:55:23.282Z,1014.06
2022-07-31T00:56:23.272Z,1014.11
2022-07-31T00:57:23.260Z,1014.04
2022-07-31T00:58:23.244Z,1014.00
2022-07-31T00:59:24.858Z,1014.01
2022-07-31T01:00:23.212Z,1014.02
2022-07-31T01:01:23.295Z,1013.97
2022-07-31T01:02:23.174Z,1013.93
2022-07-31T01:03:23.179Z,1013.95
2022-07-31T01:04:23.126Z,1013.93
2022-07-31T01:05:23.129Z,1013.94
2022-07-31T01:06:23.128Z,1013.96
2022-07-31T01:07:23.127Z,1013.98
2022-07-31T01:08:23.101Z,1013.98
2022-07-31T01:09:23.068Z,1013.97
2022-07-31T01:10:23.057Z,1013.95
2022-07-31T01:11:23.062Z,1013.93
2022-07-31T01:12:23.027Z,1013.91
2022-07-31T01:13:23.052Z,1013.94
2022-07-31T01:14:23.020Z,1013.92
2022-07-31T01:15:22.998Z,1013.96
2022-07-31T01:16:22.984Z,1013.95
2022-07-31T01:17:22.967Z,1013.96
2022-07-31T01:18:22.951Z,1013.89
2022-07-31T01:19:22.974Z,1013.96
2022-07-31T01:20:23.930Z,1013.97
2022-07-31T01:21:22.914Z,1013.99
2022-07-31T01:22:33.676Z,1014.03
2022-07-31T01:23:23.893Z,1014.00
2022-07-31T01:24:22.902Z,1013.99
2022-07-31T01:25:22.875Z,1013.96
2022-07-31T01:26:22.857Z,1013.93
2022-07-31T01:27:22.831Z,1013.93
2022-07-31T01:28:22.836Z,1013.95
2022-07-31T01:29:22.794Z,1013.89
2022-07-31T01:30:24.097Z,1013.91
2022-07-31T01:31:27.395Z,1013.83
2022-07-31T01:32:27.651Z,1013.84
2022-07-31T01:33:23.769Z,1013.84
2022-07-31T01:34:22.764Z,1013.85
2022-07-31T01:35:22.737Z,1013.83
2022-07-31T01:36:22.728Z,1013.86
2022-07-31T01:37:22.711Z,1013.87
2022-07-31T01:38:22.669Z,1013.90
2022-07-31T01:39:22.689Z,1013.87
2022-07-31T01:40:22.719Z,1013.87
2022-07-31T01:41:22.648Z,1013.84
2022-07-31T01:42:22.629Z,1013.86
2022-07-31T01:43:23.355Z,1013.90
2022-07-31T01:44:22.612Z,1013.90
2022-07-31T01:45:22.615Z,1013.92
2022-07-31T01:46:22.604Z,1013.88
2022-07-31T01:47:22.575Z,1013.85
2022-07-31T01:48:22.565Z,1013.82
2022-07-31T01:49:22.580Z,1013.80
2022-07-31T01:50:43.556Z,1013.75
2022-07-31T01:51:23.566Z,1013.76
2022-07-31T01:52:22.493Z,1013.74
2022-07-31T01:53:22.505Z,1013.77
2022-07-31T01:54:22.495Z,1013.75
2022-07-31T01:55:22.472Z,1013.72
2022-07-31T01:56:22.453Z,1013.71
2022-07-31T01:57:22.461Z,1013.60
2022-07-31T01:58:22.429Z,1013.60
2022-07-31T01:59:22.915Z,1013.57
2022-07-31T02:00:33.752Z,1013.64
2022-07-31T02:01:27.090Z,1013.63
2022-07-31T02:02:22.378Z,1013.68
2022-07-31T02:03:43.486Z,1013.68
2022-07-31T02:04:23.337Z,1013.71
2022-07-31T02:05:22.349Z,1013.72
2022-07-31T02:06:22.340Z,1013.67
2022-07-31T02:07:22.316Z,1013.67
2022-07-31T02:08:22.295Z,1013.64
2022-07-31T02:09:22.361Z,1013.64
2022-07-31T02:10:22.288Z,1013.59
2022-07-31T02:11:22.272Z,1013.57
2022-07-31T02:12:32.250Z,1013.51
2022-07-31T02:13:23.236Z,1013.54
2022-07-31T02:14:22.214Z,1013.47
2022-07-31T02:15:22.204Z,1013.51
2022-07-31T02:16:22.202Z,1013.50
2022-07-31T02:17:22.817Z,1013.50
2022-07-31T02:18:22.153Z,1013.46
2022-07-31T02:19:22.168Z,1013.51
2022-07-31T02:20:22.123Z,1013.51
2022-07-31T02:21:22.145Z,1013.52
2022-07-31T02:22:24.040Z,1013.50
2022-07-31T02:23:22.215Z,1013.53
2022-07-31T02:24:22.085Z,1013.50
2022-07-31T02:25:22.068Z,1013.51
2022-07-31T02:26:22.042Z,1013.50
2022-07-31T02:27:57.375Z,1013.53
2022-07-31T02:28:23.059Z,1013.48
2022-07-31T02:29:22.021Z,1013.51
2022-07-31T02:30:21.994Z,1013.50
2022-07-31T02:31:22.014Z,1013.52
2022-07-31T02:32:21.977Z,1013.50
2022-07-31T02:33:21.980Z,1013.49
2022-07-31T02:34:21.980Z,1013.43
2022-07-31T02:35:22.930Z,1013.48
2022-07-31T02:36:21.941Z,1013.49
2022-07-31T02:37:21.916Z,1013.49
2022-07-31T02:38:22.620Z,1013.51
2022-07-31T02:39:21.933Z,1013.51
2022-07-31T02:40:21.866Z,1013.52
2022-07-31T02:41:21.872Z,1013.52
2022-07-31T02:42:21.854Z,1013.48
2022-07-31T02:43:21.833Z,1013.51
2022-07-31T02:44:27.097Z,1013.46
2022-07-31T02:45:22.943Z,1013.40
2022-07-31T02:46:21.809Z,1013.38
2022-07-31T02:47:21.793Z,1013.36
2022-07-31T02:48:21.773Z,1013.35
2022-07-31T02:49:21.815Z,1013.32
2022-07-31T02:50:22.456Z,1013.32
2022-07-31T02:51:21.765Z,1013.32
2022-07-31T02:52:21.722Z,1013.27
2022-07-31T02:53:21.722Z,1013.29
2022-07-31T02:54:21.697Z,1013.26
2022-07-31T02:55:22.615Z,1013.26
2022-07-31T02:56:21.669Z,1013.25
2022-07-31T02:57:21.660Z,1013.25
2022-07-31T02:58:21.627Z,1013.17
2022-07-31T02:59:21.621Z,1013.21
2022-07-31T03:00:21.711Z,1013.25
2022-07-31T03:01:21.705Z,1013.23
2022-07-31T03:02:21.577Z,1013.26
2022-07-31T03:03:21.589Z,1013.26
2022-07-31T03:04:21.565Z,1013.26
2022-07-31T03:05:21.562Z,1013.22
2022-07-31T03:06:21.536Z,1013.21
2022-07-31T03:07:21.618Z,1013.24
2022-07-31T03:08:21.514Z,1013.19
2022-07-31T03:09:21.495Z,1013.16
2022-07-31T03:10:21.469Z,1013.22
2022-07-31T03:11:21.465Z,1013.19
2022-07-31T03:12:21.451Z,1013.18
2022-07-31T03:13:21.485Z,1013.21
2022-07-31T03:14:21.433Z,1013.22
2022-07-31T03:15:21.413Z,1013.20
2022-07-31T03:16:21.391Z,1013.21
2022-07-31T03:17:22.357Z,1013.20
2022-07-31T03:18:21.387Z,1013.21
2022-07-31T03:19:21.360Z,1013.18
2022-07-31T03:20:21.347Z,1013.20
2022-07-31T03:21:21.324Z,1013.17
2022-07-31T03:22:21.320Z,1013.21
2022-07-31T03:23:21.317Z,1013.18
2022-07-31T03:24:21.398Z,1013.17
2022-07-31T03:25:22.225Z,1013.16
2022-07-31T03:26:21.279Z,1013.13
2022-07-31T03:27:21.236Z,1013.12
2022-07-31T03:28:21.250Z,1013.10
2022-07-31T03:29:39.161Z,1013.12
2022-07-31T03:30:22.327Z,1013.08
2022-07-31T03:31:21.201Z,1013.09
2022-07-31T03:32:21.201Z,1013.08
2022-07-31T03:33:21.171Z,1013.07
2022-07-31T03:34:21.150Z,1013.06
2022-07-31T03:35:21.158Z,1013.07
2022-07-31T03:36:21.129Z,1013.09
2022-07-31T03:37:21.133Z,1013.12
2022-07-31T03:38:38.963Z,1013.12
2022-07-31T03:39:22.088Z,1013.14
2022-07-31T03:40:21.093Z,1013.15
2022-07-31T03:41:21.283Z,1013.13
2022-07-31T03:42:21.059Z,1013.14
2022-07-31T03:43:21.054Z,1013.11
2022-07-31T03:44:21.003Z,1013.14
2022-07-31T03:45:21.008Z,1013.12
2022-07-31T03:46:21.006Z,1013.08
2022-07-31T03:47:20.984Z,1013.12
2022-07-31T03:48:21.936Z,1013.11
2022-07-31T03:49:20.998Z,1013.06
2022-07-31T03:50:20.958Z,1013.13
2022-07-31T03:51:20.930Z,1013.14
2022-07-31T03:52:21.038Z,1013.15
2022-07-31T03:53:20.895Z,1013.14
2022-07-31T03:54:20.878Z,1013.15
2022-07-31T03:55:20.902Z,1013.18
2022-07-31T03:56:20.857Z,1013.14
2022-07-31T03:57:20.861Z,1013.11
2022-07-31T03:58:21.889Z,1013.09
2022-07-31T03:59:21.672Z,1013.14
2022-07-31T04:00:20.832Z,1013.11
2022-07-31T04:01:21.077Z,1013.10
2022-07-31T04:02:20.808Z,1013.13
2022-07-31T04:03:20.771Z,1013.10
2022-07-31T04:04:20.902Z,1013.10
2022-07-31T04:05:20.736Z,1013.09
2022-07-31T04:06:20.730Z,1013.13
2022-07-31T04:07:20.715Z,1013.10
2022-07-31T04:08:20.701Z,1013.13
2022-07-31T04:09:20.701Z,1013.14
2022-07-31T04:10:20.705Z,1013.14
2022-07-31T04:11:20.661Z,1013.08
2022-07-31T04:12:20.666Z,1013.12
2022-07-31T04:13:20.662Z,1013.10
2022-07-31T04:14:20.635Z,1013.09
2022-07-31T04:15:20.754Z,1013.10
2022-07-31T04:16:20.594Z,1013.14
2022-07-31T04:17:20.586Z,1013.16
2022-07-31T04:18:21.287Z,1013.17
2022-07-31T04:19:20.553Z,1013.18
2022-07-31T04:20:20.560Z,1013.16
2022-07-31T04:21:20.553Z,1013.15
2022-07-31T04:22:20.508Z,1013.18
2022-07-31T04:23:20.511Z,1013.12
2022-07-31T04:24:20.487Z,1013.14
2022-07-31T04:25:20.470Z,1013.14
2022-07-31T04:26:26.042Z,1013.18
2022-07-31T04:27:21.438Z,1013.19
2022-07-31T04:28:20.476Z,1013.11
2022-07-31T04:29:20.426Z,1013.10
2022-07-31T04:30:20.399Z,1013.10
2022-07-31T04:31:20.414Z,1013.09
2022-07-31T04:32:20.399Z,1013.12
2022-07-31T04:33:20.375Z,1013.05
2022-07-31T04:34:21.351Z,1013.01
2022-07-31T04:35:20.343Z,1012.99
2022-07-31T04:36:29.254Z,1012.99
2022-07-31T04:37:21.358Z,1012.96
2022-07-31T04:38:20.304Z,1012.96
2022-07-31T04:39:20.272Z,1012.95
2022-07-31T04:40:20.285Z,1012.94
2022-07-31T04:41:20.260Z,1012.97
2022-07-31T04:42:20.260Z,1012.96
2022-07-31T04:43:20.255Z,1012.95
2022-07-31T04:44:20.224Z,1012.92
2022-07-31T04:45:20.228Z,1012.88
2022-07-31T04:46:20.226Z,1012.91
2022-07-31T04:47:20.174Z,1012.91
2022-07-31T04:48:20.167Z,1012.89
2022-07-31T04:49:20.313Z,1012.89
2022-07-31T04:50:20.136Z,1012.90
2022-07-31T04:51:20.129Z,1012.90
2022-07-31T04:52:20.119Z,1012.86
2022-07-31T04:53:20.089Z,1012.84
2022-07-31T04:54:20.089Z,1012.82
2022-07-31T04:55:20.071Z,1012.86
2022-07-31T04:56:20.055Z,1012.84
2022-07-31T04:57:22.187Z,1012.81
2022-07-31T04:58:20.731Z,1012.86
2022-07-31T04:59:20.014Z,1012.82
2022-07-31T05:00:20.049Z,1012.84
2022-07-31T05:01:20.023Z,1012.83
2022-07-31T05:02:20.670Z,1012.84
2022-07-31T05:03:19.975Z,1012.81
2022-07-31T05:04:19.942Z,1012.85
2022-07-31T05:05:19.952Z,1012.84
2022-07-31T05:06:20.036Z,1012.86
2022-07-31T05:07:19.905Z,1012.83
2022-07-31T05:08:19.882Z,1012.77
2022-07-31T13:47:51.454Z,1009.88
2022-07-31T13:48:47.037Z,1009.87
2022-07-31T13:49:46.008Z,1009.93
2022-07-31T13:50:46.005Z,1009.87
2022-07-31T13:51:45.972Z,1009.82
2022-07-31T13:52:45.995Z,1009.90
2022-07-31T13:53:45.996Z,1009.88
2022-07-31T13:54:45.946Z,1009.90
2022-07-31T13:55:49.789Z,1009.88
2022-07-31T13:56:45.914Z,1009.91
2022-07-31T13:57:45.905Z,1009.88
2022-07-31T13:58:45.897Z,1009.86
2022-07-31T13:59:45.885Z,1009.89
2022-07-31T14:00:45.881Z,1009.94
2022-07-31T14:02:03.359Z,1009.93
2022-07-31T14:02:46.902Z,1009.93
2022-07-31T14:03:45.826Z,1009.92
2022-07-31T14:04:45.841Z,1009.94
2022-07-31T14:05:45.811Z,1009.87
2022-07-31T14:06:45.774Z,1009.91
2022-07-31T14:07:51.771Z,1009.85
2022-07-31T14:08:50.255Z,1009.90
2022-07-31T14:09:51.258Z,1009.90
2022-07-31T14:10:48.445Z,1009.90
2022-07-31T14:11:45.751Z,1009.87
2022-07-31T14:12:45.714Z,1009.89
2022-07-31T14:13:45.713Z,1009.95
2022-07-31T14:14:45.794Z,1010.03
2022-07-31T14:15:45.690Z,1010.00
2022-07-31T14:16:45.642Z,1010.03
2022-07-31T14:17:45.652Z,1009.99
2022-07-31T14:18:45.667Z,1010.01
2022-07-31T14:19:45.628Z,1009.94
2022-07-31T14:20:45.625Z,1010.06
2022-07-31T14:21:56.129Z,1010.03
2022-07-31T14:22:46.588Z,1010.04
2022-07-31T14:23:45.555Z,1010.01
2022-07-31T14:24:50.768Z,1010.01
2022-07-31T14:25:46.592Z,1010.02
2022-07-31T14:26:45.516Z,1010.05
2022-07-31T14:27:45.535Z,1010.06
2022-07-31T14:28:45.487Z,1010.08
2022-07-31T14:29:45.486Z,1010.09
2022-07-31T14:30:45.480Z,1010.08
2022-07-31T14:31:45.493Z,1010.08
2022-07-31T14:32:45.465Z,1010.12
2022-07-31T14:33:45.444Z,1010.13
2022-07-31T14:34:45.411Z,1010.12
2022-07-31T14:35:45.413Z,1010.16
2022-07-31T14:36:46.532Z,1010.19
2022-07-31T14:37:45.386Z,1010.14
2022-07-31T14:38:45.362Z,1010.18
2022-07-31T14:39:45.414Z,1010.19
2022-07-31T14:40:45.337Z,1010.21
2022-07-31T14:41:45.323Z,1010.32
2022-07-31T14:42:45.346Z,1010.31
2022-07-31T14:43:45.293Z,1010.36
2022-07-31T14:44:45.292Z,1010.38
2022-07-31T14:45:51.668Z,1010.37
2022-07-31T14:46:46.277Z,1010.39
2022-07-31T14:47:45.300Z,1010.44
2022-07-31T14:48:45.324Z,1010.43
2022-07-31T14:50:08.925Z,1010.43
2022-07-31T14:50:46.225Z,1010.48
2022-07-31T14:51:45.207Z,1010.49
2022-07-31T14:52:45.199Z,1010.52
2022-07-31T14:53:45.322Z,1010.50
2022-07-31T14:54:45.151Z,1010.50
2022-07-31T14:55:45.152Z,1010.53
2022-07-31T14:57:00.776Z,1010.56
2022-07-31T14:57:46.140Z,1010.56
2022-07-31T14:58:58.200Z,1010.56
2022-07-31T14:59:46.104Z,1010.62
2022-07-31T15:00:45.089Z,1010.63
2022-07-31T15:01:45.107Z,1010.66
2022-07-31T15:02:45.074Z,1010.74
2022-07-31T15:03:45.070Z,1010.71
2022-07-31T15:04:45.055Z,1010.68
2022-07-31T15:06:44.455Z,1010.73
2022-07-31T15:06:53.632Z,1010.70
2022-07-31T15:07:47.150Z,1010.62
2022-07-31T15:08:44.965Z,1010.68
2022-07-31T15:09:44.954Z,1010.68
2022-07-31T15:10:45.000Z,1010.63
2022-07-31T15:11:58.247Z,1010.62
2022-07-31T15:12:45.920Z,1010.55
2022-07-31T15:13:44.936Z,1010.49
2022-07-31T15:14:44.886Z,1010.47
2022-07-31T15:15:44.891Z,1010.38
2022-07-31T15:16:44.895Z,1010.28
2022-07-31T15:17:45.847Z,1010.25
2022-07-31T15:18:46.930Z,1010.32
2022-07-31T15:19:45.821Z,1010.34
2022-07-31T15:20:44.867Z,1010.36
2022-07-31T15:21:44.811Z,1010.31
2022-07-31T15:22:45.802Z,1010.31
2022-07-31T15:23:44.761Z,1010.34
2022-07-31T15:24:49.024Z,1010.29
2022-07-31T15:25:45.756Z,1010.25
2022-07-31T15:26:44.712Z,1010.31
2022-07-31T15:27:44.738Z,1010.35
2022-07-31T15:28:44.707Z,1010.37
2022-07-31T15:30:04.297Z,1010.32
2022-07-31T15:30:45.698Z,1010.22
2022-07-31T15:31:44.666Z,1010.28
2022-07-31T15:32:44.659Z,1010.39
2022-07-31T15:33:44.658Z,1010.35
2022-07-31T15:34:44.626Z,1010.35
2022-07-31T15:35:44.640Z,1010.30
2022-07-31T15:36:44.609Z,1010.24
2022-07-31T15:37:44.605Z,1010.16
2022-07-31T15:38:44.580Z,1010.18
2022-07-31T15:39:44.570Z,1010.17
2022-07-31T15:40:45.536Z,1010.15
2022-07-31T15:41:44.551Z,1010.16
2022-07-31T15:42:44.523Z,1010.15
2022-07-31T15:43:44.547Z,1010.17
2022-07-31T15:44:44.527Z,1010.14
2022-07-31T15:45:45.309Z,1010.12
2022-07-31T15:46:44.548Z,1010.14
2022-07-31T15:47:44.482Z,1010.11
2022-07-31T15:48:44.511Z,1010.10
2022-07-31T15:49:44.720Z,1010.04
2022-07-31T15:50:44.570Z,1010.03
2022-07-31T15:51:45.362Z,1010.03
2022-07-31T15:52:45.145Z,1010.02
2022-07-31T15:53:44.429Z,1009.98
2022-07-31T15:54:44.730Z,1009.99
2022-07-31T15:55:44.490Z,1009.98
2022-07-31T15:56:44.346Z,1010.00
2022-07-31T15:57:44.448Z,1009.99
2022-07-31T15:58:49.816Z,1009.97
2022-07-31T15:59:45.432Z,1009.94
2022-07-31T16:00:44.485Z,1009.92
2022-07-31T16:01:44.294Z,1009.93
2022-07-31T16:02:45.707Z,1009.92
2022-07-31T16:03:53.113Z,1009.91
2022-07-31T16:04:53.097Z,1009.91
2022-07-31T16:05:45.239Z,1009.87
2022-07-31T16:06:48.914Z,1009.82
2022-07-31T16:08:29.336Z,1009.82
2022-07-31T16:08:45.206Z,1009.83
2022-07-31T16:10:03.301Z,1009.84
2022-07-31T16:10:45.191Z,1009.80
2022-07-31T16:12:04.961Z,1009.76
2022-07-31T16:12:45.197Z,1009.82
2022-07-31T16:13:44.134Z,1009.81
2022-07-31T16:14:44.113Z,1009.78
2022-07-31T16:15:44.217Z,1009.80
2022-07-31T16:16:45.873Z,1009.72
2022-07-31T16:17:44.082Z,1009.71
2022-07-31T16:18:44.071Z,1009.69
2022-07-31T16:19:44.035Z,1009.65
2022-07-31T16:20:44.028Z,1009.65
2022-07-31T16:21:44.059Z,1009.66
2022-07-31T16:22:43.991Z,1009.67
2022-07-31T16:23:43.991Z,1009.65
2022-07-31T16:24:43.986Z,1009.58
2022-07-31T16:25:43.977Z,1009.59
2022-07-31T16:26:43.954Z,1009.57
2022-07-31T16:27:44.954Z,1009.62
2022-07-31T16:28:43.911Z,1009.62
2022-07-31T16:29:59.793Z,1009.51
2022-07-31T16:30:44.945Z,1009.54
2022-07-31T16:31:43.877Z,1009.48
2022-07-31T16:32:43.902Z,1009.54
2022-07-31T16:33:43.897Z,1009.48
2022-07-31T16:34:47.013Z,1009.46
2022-07-31T16:35:44.854Z,1009.47
2022-07-31T16:36:43.810Z,1009.49
2022-07-31T16:37:52.554Z,1009.45
2022-07-31T16:38:59.441Z,1009.44
2022-07-31T16:39:44.772Z,1009.44
2022-07-31T16:40:43.768Z,1009.45
2022-07-31T16:41:54.494Z,1009.46
2022-07-31T16:42:44.735Z,1009.45
2022-07-31T16:43:48.771Z,1009.43
2022-07-31T16:44:44.747Z,1009.39
2022-07-31T16:45:43.698Z,1009.38
2022-07-31T16:46:43.668Z,1009.39
2022-07-31T16:47:50.744Z,1009.39
2022-07-31T16:48:44.649Z,1009.35
2022-07-31T16:49:43.686Z,1009.36
2022-07-31T16:50:43.641Z,1009.33
2022-07-31T16:51:43.619Z,1009.35
2022-07-31T16:52:43.602Z,1009.31
2022-07-31T16:54:11.051Z,1009.22
2022-07-31T16:54:44.572Z,1009.26
2022-07-31T16:55:51.812Z,1009.20
2022-07-31T16:56:44.555Z,1009.26
2022-07-31T16:57:43.518Z,1009.18
2022-07-31T16:58:43.525Z,1009.17
2022-07-31T16:59:57.561Z,1009.15
2022-07-31T17:00:44.636Z,1009.15
2022-07-31T17:01:57.110Z,1009.10
2022-07-31T17:02:44.478Z,1009.11
2022-07-31T17:04:01.735Z,1009.11
2022-07-31T17:04:44.425Z,1009.07
2022-07-31T17:05:43.421Z,1009.00
2022-07-31T17:06:43.538Z,1009.06
2022-07-31T17:07:43.385Z,1009.06
2022-07-31T17:08:43.389Z,1009.04
2022-07-31T17:09:43.379Z,1008.99
2022-07-31T17:10:43.351Z,1009.01
2022-07-31T17:11:43.350Z,1008.94
2022-07-31T17:12:43.325Z,1008.93
2022-07-31T17:13:43.312Z,1008.90
2022-07-31T17:14:43.355Z,1008.98
2022-07-31T17:15:43.292Z,1008.93
2022-07-31T17:16:47.105Z,1008.92
2022-07-31T17:17:44.400Z,1008.99
2022-07-31T17:18:43.252Z,1008.99
2022-07-31T17:19:46.871Z,1008.96
2022-07-31T17:20:43.237Z,1008.97
2022-07-31T17:21:44.477Z,1008.94
2022-07-31T17:22:43.190Z,1008.96
2022-07-31T17:23:51.036Z,1008.96
2022-07-31T17:24:44.201Z,1008.96
2022-07-31T17:25:43.327Z,1009.00
2022-07-31T17:26:43.238Z,1009.01
2022-07-31T17:27:43.144Z,1008.98
2022-07-31T17:28:43.121Z,1008.94
2022-07-31T17:29:43.156Z,1008.97
2022-07-31T17:30:43.086Z,1008.92
2022-07-31T17:31:43.074Z,1008.89
2022-07-31T17:32:43.067Z,1008.92
2022-07-31T17:33:58.938Z,1008.91
2022-07-31T17:34:44.035Z,1008.93
2022-07-31T17:35:43.057Z,1008.90
2022-07-31T17:36:43.011Z,1008.90
2022-07-31T17:37:42.995Z,1008.85
2022-07-31T17:38:43.169Z,1008.93
2022-07-31T17:39:43.131Z,1008.89
2022-07-31T17:40:44.249Z,1008.90
2022-07-31T17:41:42.990Z,1008.96
2022-07-31T17:42:42.919Z,1008.94
2022-07-31T17:43:50.490Z,1008.90
2022-07-31T17:44:46.896Z,1008.86
2022-07-31T17:45:59.829Z,1008.87
2022-07-31T17:46:48.229Z,1008.86
2022-07-31T17:47:43.873Z,1008.84
2022-07-31T17:48:42.850Z,1008.90
2022-07-31T17:49:42.842Z,1008.90
2022-07-31T17:50:42.836Z,1008.88
2022-07-31T17:51:58.775Z,1008.89
2022-07-31T17:52:43.803Z,1008.91
2022-07-31T17:53:54.786Z,1008.93
2022-07-31T17:54:43.980Z,1008.90
2022-07-31T17:55:42.779Z,1008.87
2022-07-31T17:56:42.764Z,1008.87
2022-07-31T17:57:42.806Z,1008.91
2022-07-31T17:58:42.727Z,1008.85
2022-07-31T17:59:42.736Z,1008.88
2022-07-31T18:00:42.699Z,1008.86
2022-07-31T18:01:42.750Z,1008.86
2022-07-31T18:02:43.759Z,1008.85
2022-07-31T18:03:42.639Z,1008.84
2022-07-31T18:04:42.657Z,1008.91
2022-07-31T18:05:42.639Z,1008.83
2022-07-31T18:06:42.606Z,1008.92
2022-07-31T18:07:42.602Z,1008.94
2022-07-31T18:08:42.700Z,1009.01
2022-07-31T18:09:42.607Z,1009.08
2022-07-31T18:10:53.871Z,1009.12
2022-07-31T18:11:43.538Z,1009.20
2022-07-31T18:12:57.297Z,1009.30
2022-07-31T18:13:48.246Z,1009.34
2022-07-31T18:14:43.511Z,1009.33
2022-07-31T18:15:42.515Z,1009.39
2022-07-31T18:16:42.464Z,1009.38
2022-07-31T18:17:42.482Z,1009.42
2022-07-31T18:18:42.471Z,1009.40
2022-07-31T18:19:42.460Z,1009.38
2022-07-31T18:20:42.434Z,1009.37
2022-07-31T18:21:42.416Z,1009.31
2022-07-31T18:22:49.686Z,1009.27
2022-07-31T18:23:47.196Z,1009.21
2022-07-31T18:24:42.487Z,1009.21
2022-07-31T18:25:42.358Z,1009.33
2022-07-31T18:26:42.336Z,1009.44
2022-07-31T18:27:42.327Z,1009.40
2022-07-31T18:28:42.306Z,1009.51
2022-07-31T18:29:42.288Z,1009.43
2022-07-31T18:30:43.421Z,1009.46
2022-07-31T18:31:42.258Z,1009.44
2022-07-31T18:32:42.272Z,1009.44
2022-07-31T18:33:42.295Z,1009.41
2022-07-31T18:34:42.238Z,1009.38
2022-07-31T18:35:42.215Z,1009.42
2022-07-31T18:36:42.222Z,1009.39
2022-07-31T18:37:42.202Z,1009.46
2022-07-31T18:38:42.189Z,1009.45
2022-07-31T18:39:49.054Z,1009.47
2022-07-31T18:40:43.153Z,1009.45
2022-07-31T18:41:46.789Z,1009.48
2022-07-31T18:42:43.168Z,1009.56
2022-07-31T18:43:42.116Z,1009.56
2022-07-31T18:44:42.114Z,1009.54
2022-07-31T18:45:42.095Z,1009.56
2022-07-31T18:46:42.085Z,1009.50
2022-07-31T18:47:42.186Z,1009.52
2022-07-31T18:48:42.044Z,1009.50
2022-07-31T18:50:58.984Z,1009.49
2022-07-31T18:51:01.467Z,1009.48
2022-07-31T18:51:43.015Z,1009.50
2022-07-31T18:52:41.997Z,1009.54
2022-07-31T18:53:42.086Z,1009.48
2022-07-31T18:54:41.991Z,1009.48
2022-07-31T18:55:41.948Z,1009.50
2022-07-31T18:56:41.950Z,1009.53
2022-07-31T18:57:41.938Z,1009.53
2022-07-31T18:58:41.916Z,1009.50
2022-07-31T18:59:41.923Z,1009.49
2022-07-31T19:00:41.887Z,1009.50
2022-07-31T19:01:42.581Z,1009.51
2022-07-31T19:02:41.881Z,1009.50
2022-07-31T19:03:41.854Z,1009.49
2022-07-31T19:04:41.962Z,1009.49
2022-07-31T19:05:41.842Z,1009.48
2022-07-31T19:06:41.810Z,1009.49
2022-07-31T19:07:41.805Z,1009.51
2022-07-31T19:08:41.791Z,1009.54
2022-07-31T19:09:41.769Z,1009.53
2022-07-31T19:10:41.855Z,1009.49
2022-07-31T19:11:41.746Z,1009.49
2022-07-31T19:12:42.751Z,1009.48
2022-07-31T19:13:41.729Z,1009.50
2022-07-31T19:14:41.702Z,1009.48
2022-07-31T19:15:41.700Z,1009.47
2022-07-31T19:16:41.682Z,1009.48
2022-07-31T19:17:43.952Z,1009.51
2022-07-31T19:18:41.676Z,1009.54
2022-07-31T19:19:54.562Z,1009.54
2022-07-31T19:20:58.925Z,1009.53
2022-07-31T19:21:43.006Z,1009.50
2022-07-31T19:22:41.605Z,1009.57
2022-07-31T19:23:41.575Z,1009.54
2022-07-31T19:24:41.580Z,1009.52
2022-07-31T19:25:53.909Z,1009.52
2022-07-31T19:26:42.550Z,1009.53
2022-07-31T19:27:50.219Z,1009.54
2022-07-31T19:28:42.528Z,1009.53
2022-07-31T19:29:41.499Z,1009.55
2022-07-31T19:30:45.632Z,1009.59
2022-07-31T19:31:41.470Z,1009.55
2022-07-31T19:32:41.474Z,1009.58
2022-07-31T19:33:41.467Z,1009.56
2022-07-31T19:34:42.074Z,1009.57
2022-07-31T19:35:56.969Z,1009.58
2022-07-31T19:36:42.412Z,1009.54
2022-07-31T19:37:41.394Z,1009.57
2022-07-31T19:38:41.398Z,1009.59
2022-07-31T19:39:41.416Z,1009.56
2022-07-31T19:40:41.365Z,1009.60
2022-07-31T19:41:41.334Z,1009.61
2022-07-31T19:42:42.349Z,1009.55
2022-07-31T19:43:41.314Z,1009.62
2022-07-31T19:44:41.325Z,1009.62
2022-07-31T19:46:02.423Z,1009.64
2022-07-31T19:46:42.286Z,1009.66
2022-07-31T19:47:45.339Z,1009.63
2022-07-31T19:48:41.278Z,1009.57
2022-07-31T19:49:41.412Z,1009.64
2022-07-31T19:50:41.261Z,1009.62
2022-07-31T19:51:41.229Z,1009.63
2022-07-31T19:52:41.213Z,1009.60
2022-07-31T19:53:41.205Z,1009.62
2022-07-31T19:54:41.177Z,1009.67
2022-07-31T19:55:41.161Z,1009.68
2022-07-31T19:56:41.209Z,1009.67
2022-07-31T19:57:41.146Z,1009.66
2022-07-31T19:58:41.129Z,1009.67
2022-07-31T19:59:41.115Z,1009.67
2022-07-31T20:00:41.091Z,1009.70
2022-07-31T20:01:41.072Z,1009.71
2022-07-31T20:02:41.125Z,1009.68
2022-07-31T20:03:41.176Z,1009.64
2022-07-31T20:04:41.056Z,1009.67
2022-07-31T20:05:41.072Z,1009.70
2022-07-31T20:06:41.025Z,1009.69
2022-07-31T20:07:41.027Z,1009.65
2022-07-31T20:08:41.011Z,1009.66
2022-07-31T20:09:40.976Z,1009.60
2022-07-31T20:10:40.967Z,1009.62
2022-07-31T20:11:40.946Z,1009.60
2022-07-31T20:12:40.965Z,1009.65
2022-07-31T20:13:40.948Z,1009.71
2022-07-31T20:14:40.919Z,1009.65
2022-07-31T20:15:52.397Z,1009.72
2022-07-31T20:16:41.887Z,1009.68
2022-07-31T20:17:40.867Z,1009.67
2022-07-31T20:18:40.910Z,1009.67
2022-07-31T20:20:15.003Z,1009.69
2022-07-31T20:20:41.856Z,1009.71
2022-07-31T20:21:40.832Z,1009.72
2022-07-31T20:22:40.812Z,1009.69
2022-07-31T20:23:40.804Z,1009.67
2022-07-31T20:24:40.791Z,1009.72
2022-07-31T20:25:40.772Z,1009.67
2022-07-31T20:26:40.765Z,1009.68
2022-07-31T20:27:41.623Z,1009.68
2022-07-31T20:28:40.750Z,1009.62
2022-07-31T20:29:40.711Z,1009.66
2022-07-31T20:30:40.724Z,1009.64
2022-07-31T20:31:40.690Z,1009.62
2022-07-31T20:32:48.672Z,1009.66
2022-07-31T20:33:44.250Z,1009.67
2022-07-31T20:34:40.652Z,1009.64
2022-07-31T20:35:49.394Z,1009.63
2022-07-31T20:36:41.618Z,1009.64
2022-07-31T20:37:40.609Z,1009.63
2022-07-31T20:38:40.615Z,1009.62
2022-07-31T20:39:40.586Z,1009.63
2022-07-31T20:40:40.590Z,1009.61
2022-07-31T20:41:40.571Z,1009.61
2022-07-31T20:42:40.536Z,1009.65
2022-07-31T20:43:40.529Z,1009.65